createdAt,value
2023-03-31T00:01:42.811Z,100169.50
2023-03-31T00:04:13.348Z,100157.44
2023-03-31T00:06:43.998Z,100155.53
2023-03-31T00:09:21.912Z,100155.53
2023-03-31T00:11:49.541Z,100149.25
2023-03-31T00:14:18.226Z,100149.25
2023-03-31T00:16:45.884Z,100144.03
2023-03-31T00:19:18.229Z,100139.16
2023-03-31T00:21:46.064Z,100142.75
2023-03-31T00:24:13.346Z,100135.59
2023-03-31T00:26:39.755Z,100140.22
2023-03-31T00:29:07.993Z,100130.53
2023-03-31T00:31:34.798Z,100126.53
2023-03-31T00:34:01.559Z,100123.53
2023-03-31T00:36:27.955Z,100130.69
2023-03-31T00:38:56.367Z,100121.59
2023-03-31T00:41:22.748Z,100112.38
2023-03-31T00:44:02.637Z,100107.75
2023-03-31T00:46:37.135Z,100109.09
2023-03-31T00:49:03.849Z,100109.09
2023-03-31T00:51:34.366Z,100107.59
2023-03-31T00:54:04.926Z,100091.47
2023-03-31T00:56:36.135Z,100097.31
2023-03-31T00:59:04.812Z,100093.88
2023-03-31T01:01:31.481Z,100093.41
2023-03-31T01:03:59.213Z,100091.47
2023-03-31T01:06:25.829Z,100082.69
2023-03-31T01:08:52.566Z,100079.28
2023-03-31T01:11:21.021Z,100079.59
2023-03-31T01:13:50.995Z,100073.34
2023-03-31T01:16:18.186Z,100068.56
2023-03-31T01:18:49.991Z,100060.97
2023-03-31T01:21:41.358Z,100054.25
2023-03-31T01:24:51.851Z,100044.00
2023-03-31T01:27:45.455Z,100036.53
2023-03-31T01:30:25.775Z,100036.50
2023-03-31T01:33:06.517Z,100036.34
2023-03-31T01:36:04.253Z,100036.34
2023-03-31T01:38:57.379Z,100016.38
2023-03-31T01:41:37.550Z,100017.88
2023-03-31T01:44:24.517Z,100011.28
2023-03-31T01:46:57.800Z,100011.66
2023-03-31T01:49:38.166Z,100010.41
2023-03-31T01:52:24.759Z,100005.66
2023-03-31T01:55:19.348Z,100005.66
2023-03-31T01:57:49.587Z,99999.75
2023-03-31T02:00:18.185Z,99996.44
2023-03-31T02:02:48.888Z,99983.84
2023-03-31T02:05:19.170Z,99979.41
2023-03-31T02:07:56.613Z,99977.34
2023-03-31T02:10:23.725Z,99978.59
2023-03-31T02:12:51.348Z,99956.22
2023-03-31T02:15:23.322Z,99959.88
2023-03-31T02:17:52.126Z,99964.66
2023-03-31T02:20:20.264Z,99957.13
2023-03-31T02:22:50.569Z,99960.25
2023-03-31T02:25:19.494Z,99958.19
2023-03-31T02:28:08.840Z,99971.25
2023-03-31T02:30:46.406Z,99958.59
2023-03-31T02:33:12.786Z,99954.91
2023-03-31T02:35:39.331Z,99958.00
2023-03-31T02:38:06.753Z,99957.88
2023-03-31T02:40:33.155Z,99955.09
2023-03-31T02:42:59.802Z,99943.78
2023-03-31T02:45:47.923Z,99931.94
2023-03-31T02:48:26.077Z,99923.94
2023-03-31T02:51:11.231Z,99920.06
2023-03-31T02:54:10.677Z,99915.63
2023-03-31T02:56:51.756Z,99916.38
2023-03-31T02:59:32.110Z,99916.25
2023-03-31T03:02:14.207Z,99918.31
2023-03-31T03:04:59.062Z,99911.94
2023-03-31T03:07:37.646Z,99906.34
2023-03-31T03:10:48.740Z,99903.94
2023-03-31T03:13:36.438Z,99912.44
2023-03-31T03:16:13.831Z,99906.75
2023-03-31T03:18:40.523Z,99903.81
2023-03-31T03:21:07.285Z,99898.66
2023-03-31T03:23:34.037Z,99894.44
2023-03-31T03:26:00.466Z,99886.31
2023-03-31T03:28:27.050Z,99885.09
2023-03-31T03:30:53.559Z,99877.94
2023-03-31T03:33:20.044Z,99879.19
2023-03-31T03:35:46.490Z,99878.59
2023-03-31T03:38:12.876Z,99877.88
2023-03-31T03:40:39.316Z,99878.81
2023-03-31T03:43:05.747Z,99871.50
2023-03-31T03:45:32.169Z,99858.72
2023-03-31T03:47:58.616Z,99864.31
2023-03-31T03:50:25.004Z,99868.97
2023-03-31T03:52:51.566Z,99862.88
2023-03-31T03:55:18.007Z,99854.91
2023-03-31T03:57:44.386Z,99850.13
2023-03-31T04:00:12.301Z,99852.34
2023-03-31T04:02:39.829Z,99840.75
2023-03-31T04:05:06.486Z,99830.97
2023-03-31T04:07:32.955Z,99839.34
2023-03-31T04:09:59.421Z,99825.41
2023-03-31T04:12:26.038Z,99827.44
2023-03-31T04:14:52.572Z,99824.34
2023-03-31T04:17:18.987Z,99822.72
2023-03-31T04:19:50.689Z,99813.22
2023-03-31T04:22:20.535Z,99802.34
2023-03-31T04:24:52.607Z,99796.28
2023-03-31T04:27:21.053Z,99793.78
2023-03-31T04:29:54.556Z,99782.84
2023-03-31T04:32:21.848Z,99777.75
2023-03-31T04:34:50.590Z,99774.97
2023-03-31T04:37:17.448Z,99768.31
2023-03-31T04:39:46.655Z,99751.66
2023-03-31T04:42:13.397Z,99748.97
2023-03-31T04:44:39.839Z,99744.00
2023-03-31T04:47:06.894Z,99734.75
2023-03-31T04:49:33.679Z,99733.22
2023-03-31T04:52:00.133Z,99731.75
2023-03-31T04:54:26.529Z,99724.53
2023-03-31T04:56:53.117Z,99721.56
2023-03-31T04:59:19.572Z,99717.41
2023-03-31T05:01:46.182Z,99707.88
2023-03-31T05:04:12.720Z,99704.03
2023-03-31T05:06:39.116Z,99699.59
2023-03-31T05:09:06.496Z,99697.28
2023-03-31T05:11:32.908Z,99696.72
2023-03-31T05:13:59.271Z,99694.69
2023-03-31T05:16:25.737Z,99693.97
2023-03-31T05:18:52.152Z,99686.03
2023-03-31T05:21:20.674Z,99687.88
2023-03-31T05:23:47.167Z,99680.41
2023-03-31T05:26:14.006Z,99676.50
2023-03-31T05:28:41.357Z,99674.34
2023-03-31T05:31:08.715Z,99667.59
2023-03-31T05:33:40.173Z,99682.00
2023-03-31T05:36:09.163Z,99673.53
2023-03-31T05:38:36.773Z,99666.53
2023-03-31T05:41:03.217Z,99664.25
2023-03-31T05:43:29.768Z,99667.84
2023-03-31T05:45:56.215Z,99660.75
2023-03-31T05:48:22.590Z,99670.59
2023-03-31T05:50:49.001Z,99667.59
2023-03-31T05:53:15.411Z,99661.66
2023-03-31T05:55:41.807Z,99652.72
2023-03-31T05:58:08.379Z,99656.31
2023-03-31T06:00:36.145Z,99657.41
2023-03-31T06:03:02.849Z,99651.84
2023-03-31T06:05:31.129Z,99649.69
2023-03-31T06:07:57.829Z,99642.38
2023-03-31T06:10:24.224Z,99634.06
2023-03-31T06:12:50.841Z,99636.72
2023-03-31T06:15:17.285Z,99636.44
2023-03-31T06:17:43.764Z,99633.38
2023-03-31T06:20:24.474Z,99630.78
2023-03-31T06:22:53.945Z,99627.03
2023-03-31T06:25:20.525Z,99625.72
2023-03-31T06:27:46.958Z,99611.41
2023-03-31T06:30:13.723Z,99608.59
2023-03-31T06:32:40.246Z,99608.38
2023-03-31T06:35:06.945Z,99609.56
2023-03-31T06:37:33.392Z,99605.09
2023-03-31T06:39:59.799Z,99611.56
2023-03-31T06:42:26.207Z,99605.84
2023-03-31T06:44:52.730Z,99605.28
2023-03-31T06:47:19.214Z,99603.88
2023-03-31T06:49:46.225Z,99605.00
2023-03-31T06:52:12.733Z,99602.47
2023-03-31T06:54:39.196Z,99603.50
2023-03-31T06:57:05.830Z,99602.66
2023-03-31T06:59:32.275Z,99593.72
2023-03-31T07:01:58.785Z,99594.28
2023-03-31T07:04:25.404Z,99585.94
2023-03-31T07:06:51.791Z,99589.19
2023-03-31T07:09:18.698Z,99582.53
2023-03-31T07:11:45.259Z,99579.50
2023-03-31T07:14:11.870Z,99578.09
2023-03-31T07:16:38.332Z,99580.38
2023-03-31T07:19:05.923Z,99575.75
2023-03-31T07:21:32.421Z,99572.03
2023-03-31T07:23:58.789Z,99575.06
2023-03-31T07:26:26.074Z,99561.97
2023-03-31T07:28:52.748Z,99565.19
2023-03-31T07:31:19.190Z,99563.88
2023-03-31T07:33:45.701Z,99557.97
2023-03-31T07:36:14.084Z,99560.88
2023-03-31T07:38:43.047Z,99559.94
2023-03-31T07:41:14.496Z,99552.91
2023-03-31T07:43:41.116Z,99554.16
2023-03-31T07:46:14.156Z,99542.31
2023-03-31T07:48:40.754Z,99552.81
2023-03-31T07:51:07.330Z,99542.16
2023-03-31T07:53:34.151Z,99536.09
2023-03-31T07:56:00.676Z,99533.97
2023-03-31T07:58:27.250Z,99533.69
2023-03-31T08:00:53.622Z,99533.41
2023-03-31T08:03:20.112Z,99532.44
2023-03-31T08:05:46.561Z,99530.16
2023-03-31T08:08:12.949Z,99520.34
2023-03-31T08:10:39.355Z,99509.72
2023-03-31T08:13:05.829Z,99509.94
2023-03-31T08:15:32.281Z,99506.25
2023-03-31T08:17:58.780Z,99496.13
2023-03-31T08:20:25.690Z,99494.31
2023-03-31T08:22:52.060Z,99497.16
2023-03-31T08:25:18.526Z,99491.94
2023-03-31T08:27:46.693Z,99482.13
2023-03-31T08:30:13.516Z,99472.72
2023-03-31T08:32:40.005Z,99489.53
2023-03-31T08:35:07.124Z,99468.66
2023-03-31T08:37:33.570Z,99472.72
2023-03-31T08:40:00.421Z,99465.22
2023-03-31T08:42:37.269Z,99467.44
2023-03-31T08:45:12.147Z,99462.91
2023-03-31T08:47:39.218Z,99459.53
2023-03-31T08:50:12.186Z,99458.41
2023-03-31T08:52:43.795Z,99450.09
2023-03-31T08:55:17.109Z,99454.50
2023-03-31T08:57:51.660Z,99441.22
2023-03-31T09:00:18.881Z,99443.63
2023-03-31T09:03:07.265Z,99442.28
2023-03-31T09:05:59.594Z,99436.06
2023-03-31T09:08:45.725Z,99434.00
2023-03-31T09:11:35.873Z,99432.84
2023-03-31T09:14:05.188Z,99419.47
2023-03-31T09:16:44.751Z,99413.81
2023-03-31T09:19:41.841Z,99409.22
2023-03-31T09:22:17.637Z,99412.47
2023-03-31T09:24:50.052Z,99399.03
2023-03-31T09:27:16.851Z,99393.50
2023-03-31T09:29:58.930Z,99395.59
2023-03-31T09:32:29.236Z,99393.53
2023-03-31T09:35:03.061Z,99389.19
2023-03-31T09:37:33.250Z,99388.22
2023-03-31T09:40:01.198Z,99377.66
2023-03-31T09:42:27.657Z,99371.47
2023-03-31T09:44:55.074Z,99363.97
2023-03-31T09:47:29.222Z,99355.06
2023-03-31T09:49:56.054Z,99376.25
2023-03-31T09:52:32.165Z,99374.66
2023-03-31T09:55:05.515Z,99371.97
2023-03-31T09:57:35.110Z,99360.81
2023-03-31T10:00:24.521Z,99363.72
2023-03-31T10:02:54.760Z,99358.78
2023-03-31T10:05:26.660Z,99358.72
2023-03-31T10:08:09.243Z,99349.38
2023-03-31T10:10:35.750Z,99344.41
2023-03-31T10:13:07.694Z,99350.06
2023-03-31T10:15:38.065Z,99342.25
2023-03-31T10:18:05.988Z,99339.06
2023-03-31T10:20:43.740Z,99332.88
2023-03-31T10:23:17.528Z,99330.44
2023-03-31T10:25:47.333Z,99322.72
2023-03-31T10:28:17.462Z,99330.16
2023-03-31T10:30:49.790Z,99326.50
2023-03-31T10:33:23.105Z,99328.81
2023-03-31T10:35:54.727Z,99328.56
2023-03-31T10:38:27.698Z,99329.09
2023-03-31T10:40:56.422Z,99328.78
2023-03-31T10:43:30.962Z,99318.25
2023-03-31T10:46:00.456Z,99317.78
2023-03-31T10:48:32.593Z,99319.06
2023-03-31T10:51:01.558Z,99315.91
2023-03-31T10:53:28.039Z,99316.06
2023-03-31T10:56:09.364Z,99317.06
2023-03-31T10:59:14.005Z,99309.75
2023-03-31T11:02:06.536Z,99311.69
2023-03-31T11:04:57.117Z,99312.38
2023-03-31T11:07:44.956Z,99308.75
2023-03-31T11:10:32.821Z,99310.69
2023-03-31T11:13:20.921Z,99301.69
2023-03-31T11:15:56.185Z,99301.66
2023-03-31T11:18:34.739Z,99304.84
2023-03-31T11:21:16.990Z,99297.06
2023-03-31T11:23:58.770Z,99299.00
2023-03-31T11:26:34.425Z,99292.97
2023-03-31T11:29:06.415Z,99293.97
2023-03-31T11:31:32.837Z,99300.06
2023-03-31T11:34:41.352Z,99286.56
2023-03-31T11:37:13.200Z,99284.75
2023-03-31T11:39:49.234Z,99280.44
2023-03-31T11:42:22.517Z,99287.75
2023-03-31T11:45:02.455Z,99268.84
2023-03-31T11:47:32.375Z,99263.34
2023-03-31T11:50:11.686Z,99256.28
2023-03-31T11:52:41.211Z,99253.00
2023-03-31T11:55:21.806Z,99257.00
2023-03-31T11:57:56.748Z,99246.53
2023-03-31T12:00:28.141Z,99252.19
2023-03-31T12:02:59.962Z,99261.94
2023-03-31T12:05:27.884Z,99250.25
2023-03-31T12:08:13.762Z,99251.16
2023-03-31T12:11:27.788Z,99262.03
2023-03-31T12:14:20.455Z,99261.72
2023-03-31T12:16:50.666Z,99259.19
2023-03-31T12:20:10.505Z,99257.47
2023-03-31T12:22:43.565Z,99260.72
2023-03-31T12:25:23.224Z,99258.75
2023-03-31T12:27:51.477Z,99260.66
2023-03-31T12:30:29.367Z,99259.66
2023-03-31T12:32:59.333Z,99255.97
2023-03-31T12:35:38.341Z,99251.16
2023-03-31T12:38:13.891Z,99249.41
2023-03-31T12:40:52.494Z,99250.44
2023-03-31T12:43:29.210Z,99250.66
2023-03-31T12:46:18.634Z,99247.97
2023-03-31T12:49:04.456Z,99247.22
2023-03-31T12:51:51.014Z,99243.28
2023-03-31T12:54:52.756Z,99248.69
2023-03-31T12:57:23.973Z,99249.19
2023-03-31T13:00:07.657Z,99245.13
2023-03-31T13:02:34.184Z,99233.31
2023-03-31T13:05:38.554Z,99241.56
2023-03-31T13:08:06.230Z,99242.63
2023-03-31T13:10:33.244Z,99239.72
2023-03-31T13:13:05.585Z,99236.19
2023-03-31T13:15:33.651Z,99243.38
2023-03-31T13:18:05.223Z,99241.03
2023-03-31T13:20:58.640Z,99239.47
2023-03-31T13:23:25.926Z,99237.97
2023-03-31T13:25:53.750Z,99226.56
2023-03-31T13:28:23.115Z,99229.97
2023-03-31T13:30:53.572Z,99234.81
2023-03-31T13:33:33.078Z,99233.31
2023-03-31T13:36:31.695Z,99231.09
2023-03-31T13:39:24.479Z,99232.47
2023-03-31T13:42:03.739Z,99235.47
2023-03-31T13:44:51.658Z,99239.41
2023-03-31T13:47:36.549Z,99234.03
2023-03-31T13:50:29.889Z,99232.34
2023-03-31T13:53:12.996Z,99232.09
2023-03-31T13:55:57.974Z,99228.19
2023-03-31T13:58:34.972Z,99232.06
2023-03-31T14:01:13.653Z,99225.16
2023-03-31T14:04:12.169Z,99226.19
2023-03-31T14:06:44.799Z,99217.59
2023-03-31T14:09:19.465Z,99230.03
2023-03-31T14:11:46.159Z,99221.69
2023-03-31T14:14:16.129Z,99220.38
2023-03-31T14:16:51.703Z,99215.75
2023-03-31T14:19:50.341Z,99223.78
2023-03-31T14:22:43.580Z,99215.53
2023-03-31T14:25:19.271Z,99218.94
2023-03-31T14:27:51.753Z,99214.53
2023-03-31T14:30:24.138Z,99208.44
2023-03-31T14:32:53.534Z,99216.63
2023-03-31T14:35:28.915Z,99209.81
2023-03-31T14:37:56.395Z,99202.22
2023-03-31T14:40:23.728Z,99206.13
2023-03-31T14:42:50.202Z,99206.72
2023-03-31T14:45:25.149Z,99204.09
2023-03-31T14:48:13.508Z,99218.72
2023-03-31T14:50:44.129Z,99211.38
2023-03-31T14:53:18.039Z,99218.19
2023-03-31T14:58:24.849Z,99212.50
2023-03-31T15:00:52.340Z,99206.78
2023-03-31T15:03:18.788Z,99211.59
2023-03-31T15:05:48.259Z,99212.59
2023-03-31T15:08:22.973Z,99210.66
2023-03-31T15:11:02.127Z,99215.75
2023-03-31T15:13:44.258Z,99201.81
2023-03-31T15:16:20.314Z,99200.00
2023-03-31T15:18:46.847Z,99198.16
2023-03-31T15:21:21.177Z,99205.09
2023-03-31T15:23:47.827Z,99196.34
2023-03-31T15:26:22.532Z,99197.34
2023-03-31T15:28:54.447Z,99199.84
2023-03-31T15:31:21.621Z,99201.16
2023-03-31T15:33:48.285Z,99200.44
2023-03-31T15:36:14.950Z,99188.84
2023-03-31T15:38:41.607Z,99194.28
2023-03-31T15:41:12.928Z,99194.22
2023-03-31T15:43:46.692Z,99194.78
2023-03-31T15:46:24.926Z,99187.94
2023-03-31T15:48:54.230Z,99193.31
2023-03-31T15:51:26.254Z,99182.28
2023-03-31T15:53:54.719Z,99196.00
2023-03-31T15:56:33.486Z,99194.09
2023-03-31T15:59:04.466Z,99188.97
2023-03-31T16:01:34.439Z,99183.59
2023-03-31T16:04:02.810Z,99189.69
2023-03-31T16:06:36.826Z,99192.84
2023-03-31T16:09:08.154Z,99189.13
2023-03-31T16:11:58.445Z,99194.03
2023-03-31T16:14:33.053Z,99189.88
2023-03-31T16:17:12.164Z,99189.13
2023-03-31T16:20:07.235Z,99190.63
2023-03-31T16:22:41.089Z,99190.41
2023-03-31T16:25:13.171Z,99188.19
2023-03-31T16:27:46.679Z,99181.16
2023-03-31T16:30:20.748Z,99179.97
2023-03-31T16:33:10.588Z,99184.34
2023-03-31T16:35:42.054Z,99188.47
2023-03-31T16:38:11.093Z,99179.22
2023-03-31T16:40:39.961Z,99177.75
2023-03-31T16:43:23.835Z,99178.97
2023-03-31T16:45:58.983Z,99182.44
2023-03-31T16:48:27.852Z,99181.72
2023-03-31T16:50:57.441Z,99178.06
2023-03-31T16:53:29.189Z,99182.00
2023-03-31T16:55:56.918Z,99179.06
2023-03-31T16:58:24.185Z,99172.22
2023-03-31T17:00:51.768Z,99175.38
2023-03-31T17:03:18.589Z,99167.56
2023-03-31T17:05:52.674Z,99172.69
2023-03-31T17:08:20.716Z,99172.16
2023-03-31T17:10:55.449Z,99176.34
2023-03-31T17:13:21.916Z,99173.91
2023-03-31T17:15:49.447Z,99177.34
2023-03-31T17:18:17.212Z,99183.41
2023-03-31T17:20:43.757Z,99174.88
2023-03-31T17:23:10.512Z,99181.75
2023-03-31T17:25:36.967Z,99177.34
2023-03-31T17:28:04.668Z,99176.06
2023-03-31T17:30:32.130Z,99172.16
2023-03-31T17:32:58.585Z,99173.53
2023-03-31T17:35:25.281Z,99175.53
2023-03-31T17:37:55.641Z,99180.69
2023-03-31T17:40:24.070Z,99174.81
2023-03-31T17:42:51.187Z,99169.34
2023-03-31T17:45:17.826Z,99179.09
2023-03-31T17:47:45.206Z,99180.56
2023-03-31T17:50:12.670Z,99174.59
2023-03-31T17:52:39.252Z,99182.66
2023-03-31T17:55:06.048Z,99169.91
2023-03-31T17:57:32.833Z,99179.66
2023-03-31T17:59:59.325Z,99184.69
2023-03-31T18:02:25.791Z,99182.16
2023-03-31T18:04:52.457Z,99181.81
2023-03-31T18:07:19.008Z,99181.81
2023-03-31T18:09:45.477Z,99186.41
2023-03-31T18:12:11.896Z,99182.00
2023-03-31T18:14:38.343Z,99187.31
2023-03-31T18:17:04.817Z,99184.03
2023-03-31T18:19:31.907Z,99188.78
2023-03-31T18:21:58.369Z,99187.47
2023-03-31T18:24:24.839Z,99185.19
2023-03-31T18:26:51.501Z,99182.13
2023-03-31T18:29:17.923Z,99186.09
2023-03-31T18:31:44.474Z,99178.47
2023-03-31T18:34:13.104Z,99180.88
2023-03-31T18:36:40.095Z,99180.88
2023-03-31T18:39:06.752Z,99185.44
2023-03-31T18:41:33.268Z,99181.22
2023-03-31T18:44:00.364Z,99190.63
2023-03-31T18:46:26.966Z,99191.00
2023-03-31T18:48:53.396Z,99187.59
2023-03-31T18:51:20.119Z,99194.41
2023-03-31T18:53:46.746Z,99195.84
2023-03-31T18:56:13.170Z,99191.44
2023-03-31T18:58:39.670Z,99184.53
2023-03-31T19:01:06.375Z,99194.66
2023-03-31T19:03:33.203Z,99191.19
2023-03-31T19:06:12.247Z,99188.69
2023-03-31T19:08:38.892Z,99196.34
2023-03-31T19:11:16.194Z,99188.88
2023-03-31T19:13:46.592Z,99190.38
2023-03-31T19:16:13.588Z,99204.19
2023-03-31T19:18:40.090Z,99213.56
2023-03-31T19:21:06.591Z,99216.19
2023-03-31T19:23:34.099Z,99226.88
2023-03-31T19:26:00.547Z,99227.28
2023-03-31T19:28:27.768Z,99216.81
2023-03-31T19:30:56.621Z,99225.97
2023-03-31T19:33:23.859Z,99224.66
2023-03-31T19:35:51.006Z,99219.09
2023-03-31T19:38:17.809Z,99223.03
2023-03-31T19:40:44.228Z,99223.50
2023-03-31T19:43:19.228Z,99211.03
2023-03-31T19:45:46.599Z,99217.22
2023-03-31T19:48:13.113Z,99211.47
2023-03-31T19:50:40.144Z,99216.13
2023-03-31T19:53:06.809Z,99220.78
2023-03-31T19:55:35.195Z,99218.78
2023-03-31T19:58:01.750Z,99221.84
2023-03-31T20:00:28.137Z,99218.69
2023-03-31T20:02:54.677Z,99214.97
2023-03-31T20:05:21.162Z,99217.91
2023-03-31T20:07:47.594Z,99211.31
2023-03-31T20:10:14.112Z,99216.53
2023-03-31T20:12:40.519Z,99217.88
2023-03-31T20:15:07.201Z,99209.31
2023-03-31T20:17:33.619Z,99207.53
2023-03-31T20:20:00.173Z,99209.94
2023-03-31T20:22:26.659Z,99208.69
2023-03-31T20:24:53.028Z,99201.16
2023-03-31T20:27:20.058Z,99207.16
2023-03-31T20:29:46.605Z,99203.91
2023-03-31T20:32:13.132Z,99208.00
2023-03-31T20:34:39.660Z,99203.91
2023-03-31T20:37:06.066Z,99207.81
2023-03-31T20:39:32.613Z,99204.91
2023-03-31T20:41:59.014Z,99200.97
2023-03-31T20:44:25.602Z,99200.25
2023-03-31T20:46:52.441Z,99198.03
2023-03-31T20:49:19.011Z,99199.47
2023-03-31T20:51:46.431Z,99196.50
2023-03-31T20:54:13.283Z,99204.69
2023-03-31T20:56:41.424Z,99200.34
2023-03-31T20:59:13.266Z,99203.41
2023-03-31T21:01:39.928Z,99206.75
2023-03-31T21:04:08.221Z,99208.06
2023-03-31T21:06:40.923Z,99205.47
2023-03-31T21:09:07.805Z,99212.34
2023-03-31T21:11:34.515Z,99209.38
2023-03-31T21:14:01.332Z,99215.69
2023-03-31T21:16:27.929Z,99216.16
2023-03-31T21:18:58.577Z,99211.84
2023-03-31T21:21:26.683Z,99215.78
2023-03-31T21:23:54.061Z,99214.22
2023-03-31T21:26:21.791Z,99216.38
2023-03-31T21:28:53.799Z,99215.44
2023-03-31T21:31:23.735Z,99213.97
2023-03-31T21:33:51.556Z,99218.66
2023-03-31T21:36:22.165Z,99221.34
2023-03-31T21:38:49.263Z,99217.09
2023-03-31T21:41:19.241Z,99216.84
2023-03-31T21:43:46.168Z,99210.81
2023-03-31T21:46:18.863Z,99209.94
2023-03-31T21:48:45.508Z,99206.56
2023-03-31T21:51:11.910Z,99212.34
2023-03-31T21:53:38.351Z,99215.84
2023-03-31T21:56:04.978Z,99207.25
2023-03-31T21:58:31.528Z,99213.97
2023-03-31T22:01:00.404Z,99215.53
2023-03-31T22:03:28.759Z,99214.28
2023-03-31T22:05:56.895Z,99211.41
2023-03-31T22:08:23.845Z,99207.53
2023-03-31T22:10:51.825Z,99220.13
2023-03-31T22:13:19.133Z,99216.50
2023-03-31T22:15:45.614Z,99209.25
2023-03-31T22:18:12.031Z,99216.09
2023-03-31T22:20:38.984Z,99214.97
2023-03-31T22:23:05.680Z,99212.66
2023-03-31T22:25:32.426Z,99211.22
2023-03-31T22:27:59.430Z,99217.56
2023-03-31T22:30:26.072Z,99213.91
2023-03-31T22:32:52.760Z,99224.53
2023-03-31T22:35:19.166Z,99216.22
2023-03-31T22:37:46.044Z,99223.78
2023-03-31T22:40:12.493Z,99211.50
2023-03-31T22:42:38.902Z,99218.38
2023-03-31T22:45:06.374Z,99216.75
2023-03-31T22:47:32.910Z,99214.75
2023-03-31T22:49:59.461Z,99222.63
2023-03-31T22:52:25.933Z,99221.19
2023-03-31T22:54:52.322Z,99221.72
2023-03-31T22:57:18.989Z,99221.13
2023-03-31T22:59:45.621Z,99219.88
2023-03-31T23:02:12.088Z,99228.53
2023-03-31T23:04:38.536Z,99231.50
2023-03-31T23:07:05.253Z,99225.75
2023-03-31T23:09:31.837Z,99231.16
2023-03-31T23:11:59.723Z,99223.06
2023-03-31T23:14:26.942Z,99230.84
2023-03-31T23:16:53.626Z,99229.81
2023-03-31T23:19:20.346Z,99221.00
2023-03-31T23:21:46.808Z,99226.53
2023-03-31T23:24:13.224Z,99221.00
2023-03-31T23:26:39.654Z,99221.34
2023-03-31T23:29:06.061Z,99223.00
2023-03-31T23:31:32.902Z,99227.59
2023-03-31T23:34:00.347Z,99222.53
2023-03-31T23:36:27.775Z,99219.94
2023-03-31T23:38:56.072Z,99216.63
2023-03-31T23:41:26.311Z,99225.22
2023-03-31T23:43:53.581Z,99218.91
2023-03-31T23:46:20.115Z,99219.97
2023-03-31T23:48:46.569Z,99215.66
2023-03-31T23:51:13.239Z,99225.72
2023-03-31T23:53:39.998Z,99220.84
2023-03-31T23:56:09.041Z,99213.25
2023-03-31T23:58:36.070Z,99221.56
